sensor_id;sensor_type;location;lat;lon;timestamp;P1;durP1;ratioP1;P2;durP2;ratioP2
1026;SDS011;502;48.746;9.214;2023-10-31T00:00:05;1.20;;;0.70;;
1026;SDS011;502;48.746;9.214;2023-10-31T00:02:34;0.90;;;0.47;;
1026;SDS011;502;48.746;9.214;2023-10-31T00:05:01;1.60;;;0.77;;
1026;SDS011;502;48.746;9.214;2023-10-31T00:07:27;3.13;;;0.70;;
1026;SDS011;502;48.746;9.214;2023-10-31T00:09:54;1.27;;;0.57;;
1026;SDS011;502;48.746;9.214;2023-10-31T00:12:21;0.70;;;0.40;;
1026;SDS011;502;48.746;9.214;2023-10-31T00:14:47;1.00;;;0.63;;
1026;SDS011;502;48.746;9.214;2023-10-31T00:17:15;0.97;;;0.70;;
1026;SDS011;502;48.746;9.214;2023-10-31T00:19:42;1.00;;;0.50;;
1026;SDS011;502;48.746;9.214;2023-10-31T00:22:09;1.33;;;0.70;;
1026;SDS011;502;48.746;9.214;2023-10-31T00:24:36;1.20;;;0.63;;
1026;SDS011;502;48.746;9.214;2023-10-31T00:27:02;1.57;;;1.00;;
1026;SDS011;502;48.746;9.214;2023-10-31T00:29:29;1.13;;;0.60;;
1026;SDS011;502;48.746;9.214;2023-10-31T00:31:56;1.40;;;0.90;;
1026;SDS011;502;48.746;9.214;2023-10-31T00:34:23;1.17;;;0.80;;
1026;SDS011;502;48.746;9.214;2023-10-31T00:36:50;2.40;;;2.07;;
1026;SDS011;502;48.746;9.214;2023-10-31T00:39:16;1.47;;;0.70;;
1026;SDS011;502;48.746;9.214;2023-10-31T00:41:43;1.00;;;0.57;;
1026;SDS011;502;48.746;9.214;2023-10-31T00:44:11;1.20;;;0.80;;
1026;SDS011;502;48.746;9.214;2023-10-31T00:46:37;2.77;;;0.80;;
1026;SDS011;502;48.746;9.214;2023-10-31T00:49:04;1.10;;;0.70;;
1026;SDS011;502;48.746;9.214;2023-10-31T00:51:32;1.00;;;0.40;;
1026;SDS011;502;48.746;9.214;2023-10-31T00:53:58;1.10;;;0.60;;
1026;SDS011;502;48.746;9.214;2023-10-31T00:56:25;1.27;;;0.60;;
1026;SDS011;502;48.746;9.214;2023-10-31T00:58:51;1.17;;;0.60;;
1026;SDS011;502;48.746;9.214;2023-10-31T01:01:17;1.30;;;0.67;;
1026;SDS011;502;48.746;9.214;2023-10-31T01:03:44;1.60;;;0.77;;
1026;SDS011;502;48.746;9.214;2023-10-31T01:06:10;1.17;;;0.63;;
1026;SDS011;502;48.746;9.214;2023-10-31T01:08:38;0.93;;;0.60;;
1026;SDS011;502;48.746;9.214;2023-10-31T01:11:05;1.20;;;0.60;;
1026;SDS011;502;48.746;9.214;2023-10-31T01:13:32;1.13;;;0.63;;
1026;SDS011;502;48.746;9.214;2023-10-31T01:15:59;0.90;;;0.40;;
1026;SDS011;502;48.746;9.214;2023-10-31T01:18:25;0.90;;;0.53;;
1026;SDS011;502;48.746;9.214;2023-10-31T01:20:52;1.30;;;0.43;;
1026;SDS011;502;48.746;9.214;2023-10-31T01:23:18;1.77;;;0.70;;
1026;SDS011;502;48.746;9.214;2023-10-31T01:25:46;1.17;;;0.67;;
1026;SDS011;502;48.746;9.214;2023-10-31T01:28:13;1.27;;;0.50;;
1026;SDS011;502;48.746;9.214;2023-10-31T01:30:39;0.90;;;0.50;;
1026;SDS011;502;48.746;9.214;2023-10-31T01:33:06;1.00;;;0.40;;
1026;SDS011;502;48.746;9.214;2023-10-31T01:35:32;1.10;;;0.63;;
1026;SDS011;502;48.746;9.214;2023-10-31T01:37:59;1.30;;;0.70;;
1026;SDS011;502;48.746;9.214;2023-10-31T01:40:26;1.53;;;0.90;;
1026;SDS011;502;48.746;9.214;2023-10-31T01:42:54;1.40;;;0.70;;
1026;SDS011;502;48.746;9.214;2023-10-31T01:45:21;0.90;;;0.50;;
1026;SDS011;502;48.746;9.214;2023-10-31T01:47:48;1.57;;;1.00;;
1026;SDS011;502;48.746;9.214;2023-10-31T01:50:15;1.10;;;0.50;;
1026;SDS011;502;48.746;9.214;2023-10-31T01:52:43;0.97;;;0.60;;
1026;SDS011;502;48.746;9.214;2023-10-31T01:55:09;1.40;;;0.80;;
1026;SDS011;502;48.746;9.214;2023-10-31T01:57:36;1.20;;;0.80;;
1026;SDS011;502;48.746;9.214;2023-10-31T02:00:05;1.17;;;0.63;;
1026;SDS011;502;48.746;9.214;2023-10-31T02:02:37;1.13;;;0.47;;
1026;SDS011;502;48.746;9.214;2023-10-31T02:05:04;0.90;;;0.50;;
1026;SDS011;502;48.746;9.214;2023-10-31T02:07:31;1.03;;;0.53;;
1026;SDS011;502;48.746;9.214;2023-10-31T02:09:57;1.10;;;0.70;;
1026;SDS011;502;48.746;9.214;2023-10-31T02:12:31;1.07;;;0.63;;
1026;SDS011;502;48.746;9.214;2023-10-31T02:14:58;0.90;;;0.67;;
1026;SDS011;502;48.746;9.214;2023-10-31T02:17:26;1.10;;;0.70;;
1026;SDS011;502;48.746;9.214;2023-10-31T02:19:53;1.07;;;0.70;;
1026;SDS011;502;48.746;9.214;2023-10-31T02:22:21;0.90;;;0.50;;
1026;SDS011;502;48.746;9.214;2023-10-31T02:24:48;1.23;;;0.63;;
1026;SDS011;502;48.746;9.214;2023-10-31T02:27:14;1.10;;;0.60;;
1026;SDS011;502;48.746;9.214;2023-10-31T02:29:41;1.07;;;0.50;;
1026;SDS011;502;48.746;9.214;2023-10-31T02:32:07;0.90;;;0.50;;
1026;SDS011;502;48.746;9.214;2023-10-31T02:34:34;1.40;;;0.67;;
1026;SDS011;502;48.746;9.214;2023-10-31T02:37:00;1.30;;;0.60;;
1026;SDS011;502;48.746;9.214;2023-10-31T02:39:28;1.00;;;0.50;;
1026;SDS011;502;48.746;9.214;2023-10-31T02:41:55;1.00;;;0.60;;
1026;SDS011;502;48.746;9.214;2023-10-31T02:44:21;1.10;;;0.70;;
1026;SDS011;502;48.746;9.214;2023-10-31T02:46:48;0.90;;;0.50;;
1026;SDS011;502;48.746;9.214;2023-10-31T02:49:14;0.80;;;0.50;;
1026;SDS011;502;48.746;9.214;2023-10-31T02:51:41;1.03;;;0.60;;
1026;SDS011;502;48.746;9.214;2023-10-31T02:54:07;1.17;;;0.50;;
1026;SDS011;502;48.746;9.214;2023-10-31T02:56:35;2.50;;;1.00;;
1026;SDS011;502;48.746;9.214;2023-10-31T02:59:03;1.57;;;0.60;;
1026;SDS011;502;48.746;9.214;2023-10-31T03:01:29;1.60;;;0.60;;
1026;SDS011;502;48.746;9.214;2023-10-31T03:03:56;1.43;;;0.60;;
1026;SDS011;502;48.746;9.214;2023-10-31T03:06:23;1.40;;;0.53;;
1026;SDS011;502;48.746;9.214;2023-10-31T03:08:49;1.37;;;0.60;;
1026;SDS011;502;48.746;9.214;2023-10-31T03:11:22;2.50;;;0.90;;
1026;SDS011;502;48.746;9.214;2023-10-31T03:13:50;1.60;;;0.63;;
1026;SDS011;502;48.746;9.214;2023-10-31T03:16:17;1.47;;;0.70;;
1026;SDS011;502;48.746;9.214;2023-10-31T03:18:45;1.60;;;0.83;;
1026;SDS011;502;48.746;9.214;2023-10-31T03:21:11;1.80;;;0.60;;
1026;SDS011;502;48.746;9.214;2023-10-31T03:23:38;1.23;;;0.73;;
1026;SDS011;502;48.746;9.214;2023-10-31T03:26:05;3.30;;;0.87;;
1026;SDS011;502;48.746;9.214;2023-10-31T03:28:31;1.50;;;0.80;;
1026;SDS011;502;48.746;9.214;2023-10-31T03:30:59;1.10;;;0.80;;
1026;SDS011;502;48.746;9.214;2023-10-31T03:33:26;1.20;;;0.80;;
1026;SDS011;502;48.746;9.214;2023-10-31T03:35:53;2.80;;;0.77;;
1026;SDS011;502;48.746;9.214;2023-10-31T03:38:19;1.40;;;0.90;;
1026;SDS011;502;48.746;9.214;2023-10-31T03:40:46;1.20;;;0.60;;
1026;SDS011;502;48.746;9.214;2023-10-31T03:43:12;1.73;;;1.03;;
1026;SDS011;502;48.746;9.214;2023-10-31T03:45:40;1.10;;;0.80;;
1026;SDS011;502;48.746;9.214;2023-10-31T03:48:08;0.90;;;0.67;;
1026;SDS011;502;48.746;9.214;2023-10-31T03:50:34;1.00;;;0.67;;
1026;SDS011;502;48.746;9.214;2023-10-31T03:53:01;3.83;;;0.80;;
1026;SDS011;502;48.746;9.214;2023-10-31T03:55:28;1.60;;;0.90;;
1026;SDS011;502;48.746;9.214;2023-10-31T03:57:55;1.57;;;0.73;;
1026;SDS011;502;48.746;9.214;2023-10-31T04:00:21;1.87;;;0.90;;
1026;SDS011;502;48.746;9.214;2023-10-31T04:02:48;1.40;;;0.90;;
1026;SDS011;502;48.746;9.214;2023-10-31T04:05:16;2.13;;;0.70;;
1026;SDS011;502;48.746;9.214;2023-10-31T04:07:43;1.97;;;0.83;;
1026;SDS011;502;48.746;9.214;2023-10-31T04:10:10;1.60;;;1.00;;
1026;SDS011;502;48.746;9.214;2023-10-31T04:12:37;1.50;;;0.77;;
1026;SDS011;502;48.746;9.214;2023-10-31T04:15:03;1.13;;;0.53;;
1026;SDS011;502;48.746;9.214;2023-10-31T04:17:31;1.70;;;1.10;;
1026;SDS011;502;48.746;9.214;2023-10-31T04:19:57;1.80;;;0.90;;
1026;SDS011;502;48.746;9.214;2023-10-31T04:22:25;1.70;;;0.80;;
1026;SDS011;502;48.746;9.214;2023-10-31T04:24:52;1.00;;;0.70;;
1026;SDS011;502;48.746;9.214;2023-10-31T04:27:18;2.40;;;0.77;;
1026;SDS011;502;48.746;9.214;2023-10-31T04:29:45;1.27;;;0.80;;
1026;SDS011;502;48.746;9.214;2023-10-31T04:32:12;1.40;;;0.97;;
1026;SDS011;502;48.746;9.214;2023-10-31T04:34:38;1.77;;;0.80;;
1026;SDS011;502;48.746;9.214;2023-10-31T04:37:05;1.40;;;0.80;;
1026;SDS011;502;48.746;9.214;2023-10-31T04:39:33;1.47;;;0.77;;
1026;SDS011;502;48.746;9.214;2023-10-31T04:41:59;1.00;;;0.60;;
1026;SDS011;502;48.746;9.214;2023-10-31T04:44:26;1.13;;;0.87;;
1026;SDS011;502;48.746;9.214;2023-10-31T04:46:52;2.53;;;0.90;;
1026;SDS011;502;48.746;9.214;2023-10-31T04:49:19;1.30;;;0.87;;
1026;SDS011;502;48.746;9.214;2023-10-31T04:51:52;1.30;;;0.80;;
1026;SDS011;502;48.746;9.214;2023-10-31T04:54:18;2.33;;;0.80;;
1026;SDS011;502;48.746;9.214;2023-10-31T04:56:46;1.23;;;0.83;;
1026;SDS011;502;48.746;9.214;2023-10-31T04:59:13;0.90;;;0.50;;
1026;SDS011;502;48.746;9.214;2023-10-31T05:01:40;1.00;;;0.80;;
1026;SDS011;502;48.746;9.214;2023-10-31T05:04:06;1.40;;;0.70;;
1026;SDS011;502;48.746;9.214;2023-10-31T05:06:33;3.70;;;0.80;;
1026;SDS011;502;48.746;9.214;2023-10-31T05:08:59;1.60;;;0.87;;
1026;SDS011;502;48.746;9.214;2023-10-31T05:11:26;1.03;;;0.60;;
1026;SDS011;502;48.746;9.214;2023-10-31T05:13:54;1.23;;;1.00;;
1026;SDS011;502;48.746;9.214;2023-10-31T05:16:20;2.73;;;0.87;;
1026;SDS011;502;48.746;9.214;2023-10-31T05:18:47;1.10;;;0.80;;
1026;SDS011;502;48.746;9.214;2023-10-31T05:21:18;1.30;;;0.70;;
1026;SDS011;502;48.746;9.214;2023-10-31T05:23:44;2.53;;;0.87;;
1026;SDS011;502;48.746;9.214;2023-10-31T05:26:11;1.20;;;0.80;;
1026;SDS011;502;48.746;9.214;2023-10-31T05:28:37;1.40;;;0.83;;
1026;SDS011;502;48.746;9.214;2023-10-31T05:31:05;1.40;;;0.80;;
1026;SDS011;502;48.746;9.214;2023-10-31T05:33:32;1.33;;;0.70;;
1026;SDS011;502;48.746;9.214;2023-10-31T05:35:58;2.77;;;0.70;;
1026;SDS011;502;48.746;9.214;2023-10-31T05:38:25;0.93;;;0.60;;
1026;SDS011;502;48.746;9.214;2023-10-31T05:40:51;1.40;;;0.70;;
1026;SDS011;502;48.746;9.214;2023-10-31T05:43:18;1.20;;;0.70;;
1026;SDS011;502;48.746;9.214;2023-10-31T05:45:44;1.40;;;0.80;;
1026;SDS011;502;48.746;9.214;2023-10-31T05:48:12;0.90;;;0.57;;
1026;SDS011;502;48.746;9.214;2023-10-31T05:50:41;1.63;;;1.17;;
1026;SDS011;502;48.746;9.214;2023-10-31T05:53:08;1.37;;;0.80;;
1026;SDS011;502;48.746;9.214;2023-10-31T05:55:34;1.20;;;0.80;;
1026;SDS011;502;48.746;9.214;2023-10-31T05:58:04;1.37;;;1.00;;
1026;SDS011;502;48.746;9.214;2023-10-31T06:00:31;1.23;;;1.03;;
1026;SDS011;502;48.746;9.214;2023-10-31T06:02:57;2.93;;;2.00;;
1026;SDS011;502;48.746;9.214;2023-10-31T06:05:25;2.10;;;1.80;;
1026;SDS011;502;48.746;9.214;2023-10-31T06:07:52;1.77;;;1.43;;
1026;SDS011;502;48.746;9.214;2023-10-31T06:10:18;4.37;;;2.70;;
1026;SDS011;502;48.746;9.214;2023-10-31T06:12:46;3.00;;;2.00;;
1026;SDS011;502;48.746;9.214;2023-10-31T06:15:13;1.97;;;1.13;;
1026;SDS011;502;48.746;9.214;2023-10-31T06:17:39;1.90;;;1.50;;
1026;SDS011;502;48.746;9.214;2023-10-31T06:20:06;1.37;;;1.00;;
1026;SDS011;502;48.746;9.214;2023-10-31T06:22:35;1.07;;;0.97;;
1026;SDS011;502;48.746;9.214;2023-10-31T06:25:01;1.70;;;0.80;;
1026;SDS011;502;48.746;9.214;2023-10-31T06:27:28;1.37;;;0.97;;
1026;SDS011;502;48.746;9.214;2023-10-31T06:29:54;1.50;;;1.00;;
1026;SDS011;502;48.746;9.214;2023-10-31T06:32:21;1.63;;;0.90;;
1026;SDS011;502;48.746;9.214;2023-10-31T06:34:48;1.27;;;0.90;;
1026;SDS011;502;48.746;9.214;2023-10-31T06:37:14;3.50;;;0.90;;
1026;SDS011;502;48.746;9.214;2023-10-31T06:39:42;1.10;;;0.73;;
1026;SDS011;502;48.746;9.214;2023-10-31T06:42:08;1.67;;;1.03;;
1026;SDS011;502;48.746;9.214;2023-10-31T06:44:35;1.30;;;0.90;;
1026;SDS011;502;48.746;9.214;2023-10-31T06:47:02;1.77;;;0.90;;
1026;SDS011;502;48.746;9.214;2023-10-31T06:49:28;2.07;;;0.60;;
1026;SDS011;502;48.746;9.214;2023-10-31T06:51:55;1.73;;;0.90;;
1026;SDS011;502;48.746;9.214;2023-10-31T06:54:21;1.30;;;0.70;;
1026;SDS011;502;48.746;9.214;2023-10-31T06:56:49;1.30;;;1.10;;
1026;SDS011;502;48.746;9.214;2023-10-31T06:59:16;1.20;;;0.90;;
1026;SDS011;502;48.746;9.214;2023-10-31T07:01:43;1.23;;;0.73;;
1026;SDS011;502;48.746;9.214;2023-10-31T07:04:11;1.13;;;0.77;;
1026;SDS011;502;48.746;9.214;2023-10-31T07:06:38;1.73;;;0.77;;
1026;SDS011;502;48.746;9.214;2023-10-31T07:09:05;1.57;;;1.10;;
1026;SDS011;502;48.746;9.214;2023-10-31T07:11:31;1.50;;;1.00;;
1026;SDS011;502;48.746;9.214;2023-10-31T07:14:01;1.10;;;0.87;;
1026;SDS011;502;48.746;9.214;2023-10-31T07:16:28;2.13;;;0.97;;
1026;SDS011;502;48.746;9.214;2023-10-31T07:18:55;1.00;;;0.60;;
1026;SDS011;502;48.746;9.214;2023-10-31T07:21:22;1.07;;;0.80;;
1026;SDS011;502;48.746;9.214;2023-10-31T07:23:48;1.23;;;0.90;;
1026;SDS011;502;48.746;9.214;2023-10-31T07:26:15;1.40;;;0.87;;
1026;SDS011;502;48.746;9.214;2023-10-31T07:28:41;1.20;;;0.63;;
1026;SDS011;502;48.746;9.214;2023-10-31T07:31:09;1.73;;;0.97;;
1026;SDS011;502;48.746;9.214;2023-10-31T07:33:36;1.33;;;0.90;;
1026;SDS011;502;48.746;9.214;2023-10-31T07:36:03;1.60;;;0.97;;
1026;SDS011;502;48.746;9.214;2023-10-31T07:38:30;1.13;;;0.70;;
1026;SDS011;502;48.746;9.214;2023-10-31T07:40:57;1.60;;;1.00;;
1026;SDS011;502;48.746;9.214;2023-10-31T07:43:23;1.97;;;0.67;;
1026;SDS011;502;48.746;9.214;2023-10-31T07:45:49;1.30;;;0.80;;
1026;SDS011;502;48.746;9.214;2023-10-31T07:48:18;1.67;;;0.97;;
1026;SDS011;502;48.746;9.214;2023-10-31T07:50:44;1.93;;;1.10;;
1026;SDS011;502;48.746;9.214;2023-10-31T07:53:11;1.10;;;0.70;;
1026;SDS011;502;48.746;9.214;2023-10-31T07:55:37;1.30;;;0.80;;
1026;SDS011;502;48.746;9.214;2023-10-31T07:58:06;2.00;;;0.70;;
1026;SDS011;502;48.746;9.214;2023-10-31T08:00:35;1.40;;;0.77;;
1026;SDS011;502;48.746;9.214;2023-10-31T08:03:04;2.23;;;0.83;;
1026;SDS011;502;48.746;9.214;2023-10-31T08:05:32;1.07;;;0.80;;
1026;SDS011;502;48.746;9.214;2023-10-31T08:07:58;2.50;;;0.80;;
1026;SDS011;502;48.746;9.214;2023-10-31T08:10:25;2.20;;;2.00;;
1026;SDS011;502;48.746;9.214;2023-10-31T08:12:51;1.80;;;1.10;;
1026;SDS011;502;48.746;9.214;2023-10-31T08:15:18;1.77;;;0.70;;
1026;SDS011;502;48.746;9.214;2023-10-31T08:17:44;1.40;;;0.70;;
1026;SDS011;502;48.746;9.214;2023-10-31T08:20:11;1.10;;;0.60;;
1026;SDS011;502;48.746;9.214;2023-10-31T08:22:39;1.73;;;0.60;;
1026;SDS011;502;48.746;9.214;2023-10-31T08:25:07;1.87;;;0.70;;
1026;SDS011;502;48.746;9.214;2023-10-31T08:27:34;1.37;;;0.90;;
1026;SDS011;502;48.746;9.214;2023-10-31T08:30:00;0.97;;;0.60;;
1026;SDS011;502;48.746;9.214;2023-10-31T08:32:27;1.40;;;0.90;;
1026;SDS011;502;48.746;9.214;2023-10-31T08:34:54;1.47;;;0.80;;
1026;SDS011;502;48.746;9.214;2023-10-31T08:37:21;0.90;;;0.60;;
1026;SDS011;502;48.746;9.214;2023-10-31T08:39:49;1.80;;;0.80;;
1026;SDS011;502;48.746;9.214;2023-10-31T08:42:15;3.83;;;0.97;;
1026;SDS011;502;48.746;9.214;2023-10-31T08:44:42;1.60;;;0.90;;
1026;SDS011;502;48.746;9.214;2023-10-31T08:47:08;1.43;;;0.93;;
1026;SDS011;502;48.746;9.214;2023-10-31T08:49:37;1.00;;;0.80;;
1026;SDS011;502;48.746;9.214;2023-10-31T08:52:03;3.20;;;1.43;;
1026;SDS011;502;48.746;9.214;2023-10-31T08:54:30;2.30;;;0.97;;
1026;SDS011;502;48.746;9.214;2023-10-31T08:56:58;2.73;;;1.20;;
1026;SDS011;502;48.746;9.214;2023-10-31T08:59:26;1.10;;;0.70;;
1026;SDS011;502;48.746;9.214;2023-10-31T09:01:52;1.50;;;1.10;;
1026;SDS011;502;48.746;9.214;2023-10-31T09:04:19;3.87;;;1.10;;
1026;SDS011;502;48.746;9.214;2023-10-31T09:06:45;3.50;;;0.90;;
1026;SDS011;502;48.746;9.214;2023-10-31T09:09:12;1.80;;;1.00;;
1026;SDS011;502;48.746;9.214;2023-10-31T09:11:38;1.40;;;0.80;;
1026;SDS011;502;48.746;9.214;2023-10-31T09:14:06;1.43;;;0.70;;
1026;SDS011;502;48.746;9.214;2023-10-31T09:16:33;2.30;;;0.80;;
1026;SDS011;502;48.746;9.214;2023-10-31T09:18:59;1.73;;;1.17;;
1026;SDS011;502;48.746;9.214;2023-10-31T09:21:26;1.67;;;1.10;;
1026;SDS011;502;48.746;9.214;2023-10-31T09:23:52;2.33;;;1.00;;
1026;SDS011;502;48.746;9.214;2023-10-31T09:26:19;4.83;;;1.03;;
1026;SDS011;502;48.746;9.214;2023-10-31T09:28:46;2.70;;;1.00;;
1026;SDS011;502;48.746;9.214;2023-10-31T09:31:16;2.97;;;0.97;;
1026;SDS011;502;48.746;9.214;2023-10-31T09:33:43;1.47;;;0.90;;
1026;SDS011;502;48.746;9.214;2023-10-31T09:36:09;3.33;;;1.17;;
1026;SDS011;502;48.746;9.214;2023-10-31T09:38:36;2.30;;;1.13;;
1026;SDS011;502;48.746;9.214;2023-10-31T09:41:03;1.53;;;1.00;;
1026;SDS011;502;48.746;9.214;2023-10-31T09:43:30;1.50;;;0.80;;
1026;SDS011;502;48.746;9.214;2023-10-31T09:45:57;1.33;;;0.90;;
1026;SDS011;502;48.746;9.214;2023-10-31T09:48:27;1.80;;;0.90;;
1026;SDS011;502;48.746;9.214;2023-10-31T09:53:38;1.47;;;1.13;;
1026;SDS011;502;48.746;9.214;2023-10-31T09:56:05;1.30;;;0.93;;
1026;SDS011;502;48.746;9.214;2023-10-31T09:58:32;1.60;;;0.90;;
1026;SDS011;502;48.746;9.214;2023-10-31T10:00:59;2.50;;;0.97;;
1026;SDS011;502;48.746;9.214;2023-10-31T10:03:27;2.33;;;0.93;;
1026;SDS011;502;48.746;9.214;2023-10-31T10:05:54;1.87;;;0.90;;
1026;SDS011;502;48.746;9.214;2023-10-31T10:08:20;2.03;;;1.00;;
1026;SDS011;502;48.746;9.214;2023-10-31T10:10:47;2.37;;;1.30;;
1026;SDS011;502;48.746;9.214;2023-10-31T10:13:15;2.57;;;1.20;;
1026;SDS011;502;48.746;9.214;2023-10-31T10:15:43;1.50;;;1.00;;
1026;SDS011;502;48.746;9.214;2023-10-31T10:18:13;3.00;;;1.20;;
1026;SDS011;502;48.746;9.214;2023-10-31T10:20:55;2.70;;;0.93;;
1026;SDS011;502;48.746;9.214;2023-10-31T10:23:22;2.47;;;1.40;;
1026;SDS011;502;48.746;9.214;2023-10-31T10:25:49;2.40;;;1.03;;
1026;SDS011;502;48.746;9.214;2023-10-31T10:28:16;1.83;;;1.10;;
1026;SDS011;502;48.746;9.214;2023-10-31T10:30:44;2.60;;;1.07;;
1026;SDS011;502;48.746;9.214;2023-10-31T10:33:11;1.60;;;0.97;;
1026;SDS011;502;48.746;9.214;2023-10-31T10:35:37;2.33;;;1.00;;
1026;SDS011;502;48.746;9.214;2023-10-31T10:38:05;3.40;;;1.40;;
1026;SDS011;502;48.746;9.214;2023-10-31T10:40:36;2.60;;;1.23;;
1026;SDS011;502;48.746;9.214;2023-10-31T10:43:03;2.40;;;1.30;;
1026;SDS011;502;48.746;9.214;2023-10-31T10:45:33;1.67;;;1.00;;
1026;SDS011;502;48.746;9.214;2023-10-31T10:48:01;1.67;;;1.20;;
1026;SDS011;502;48.746;9.214;2023-10-31T10:50:31;2.03;;;1.00;;
1026;SDS011;502;48.746;9.214;2023-10-31T10:53:04;1.97;;;0.80;;
1026;SDS011;502;48.746;9.214;2023-10-31T10:55:37;2.03;;;1.13;;
1026;SDS011;502;48.746;9.214;2023-10-31T10:58:08;2.20;;;1.03;;
1026;SDS011;502;48.746;9.214;2023-10-31T11:00:41;3.43;;;1.33;;
1026;SDS011;502;48.746;9.214;2023-10-31T11:03:07;2.13;;;1.50;;
1026;SDS011;502;48.746;9.214;2023-10-31T11:05:34;2.00;;;1.23;;
1026;SDS011;502;48.746;9.214;2023-10-31T11:08:01;1.87;;;1.00;;
1026;SDS011;502;48.746;9.214;2023-10-31T11:10:30;2.20;;;1.40;;
1026;SDS011;502;48.746;9.214;2023-10-31T11:12:57;2.57;;;1.60;;
1026;SDS011;502;48.746;9.214;2023-10-31T11:15:24;2.80;;;1.40;;
1026;SDS011;502;48.746;9.214;2023-10-31T11:17:52;3.37;;;1.00;;
1026;SDS011;502;48.746;9.214;2023-10-31T11:20:19;2.50;;;1.30;;
1026;SDS011;502;48.746;9.214;2023-10-31T11:22:46;5.60;;;1.50;;
1026;SDS011;502;48.746;9.214;2023-10-31T11:25:15;2.33;;;1.57;;
1026;SDS011;502;48.746;9.214;2023-10-31T11:27:43;3.83;;;2.13;;
1026;SDS011;502;48.746;9.214;2023-10-31T11:30:19;3.57;;;1.80;;
1026;SDS011;502;48.746;9.214;2023-10-31T11:32:47;3.30;;;2.10;;
1026;SDS011;502;48.746;9.214;2023-10-31T11:35:15;4.03;;;1.73;;
1026;SDS011;502;48.746;9.214;2023-10-31T11:37:41;1.83;;;1.30;;
1026;SDS011;502;48.746;9.214;2023-10-31T11:40:14;2.30;;;1.40;;
1026;SDS011;502;48.746;9.214;2023-10-31T11:42:40;2.37;;;1.30;;
1026;SDS011;502;48.746;9.214;2023-10-31T11:45:08;1.23;;;0.73;;
1026;SDS011;502;48.746;9.214;2023-10-31T11:47:45;3.57;;;1.37;;
1026;SDS011;502;48.746;9.214;2023-10-31T11:50:12;1.40;;;1.03;;
1026;SDS011;502;48.746;9.214;2023-10-31T11:52:38;1.60;;;0.90;;
1026;SDS011;502;48.746;9.214;2023-10-31T11:55:07;1.30;;;0.90;;
1026;SDS011;502;48.746;9.214;2023-10-31T11:57:35;1.10;;;0.60;;
1026;SDS011;502;48.746;9.214;2023-10-31T12:00:01;1.10;;;0.70;;
1026;SDS011;502;48.746;9.214;2023-10-31T12:02:39;3.20;;;0.63;;
1026;SDS011;502;48.746;9.214;2023-10-31T12:05:09;1.10;;;0.53;;
1026;SDS011;502;48.746;9.214;2023-10-31T12:07:42;1.10;;;0.50;;
1026;SDS011;502;48.746;9.214;2023-10-31T12:10:09;0.90;;;0.50;;
1026;SDS011;502;48.746;9.214;2023-10-31T12:12:36;1.00;;;0.43;;
1026;SDS011;502;48.746;9.214;2023-10-31T12:15:05;1.10;;;0.60;;
1026;SDS011;502;48.746;9.214;2023-10-31T12:17:33;1.30;;;0.80;;
1026;SDS011;502;48.746;9.214;2023-10-31T12:20:04;1.90;;;0.87;;
1026;SDS011;502;48.746;9.214;2023-10-31T12:22:32;1.70;;;0.60;;
1026;SDS011;502;48.746;9.214;2023-10-31T12:25:01;2.23;;;0.80;;
1026;SDS011;502;48.746;9.214;2023-10-31T12:27:41;2.33;;;1.00;;
1026;SDS011;502;48.746;9.214;2023-10-31T12:30:09;1.90;;;0.80;;
1026;SDS011;502;48.746;9.214;2023-10-31T12:32:36;2.70;;;0.80;;
1026;SDS011;502;48.746;9.214;2023-10-31T12:35:04;2.00;;;1.00;;
1026;SDS011;502;48.746;9.214;2023-10-31T12:37:31;0.93;;;0.70;;
1026;SDS011;502;48.746;9.214;2023-10-31T12:39:58;1.30;;;0.73;;
1026;SDS011;502;48.746;9.214;2023-10-31T12:42:29;1.00;;;0.70;;
1026;SDS011;502;48.746;9.214;2023-10-31T12:44:56;1.00;;;0.70;;
1026;SDS011;502;48.746;9.214;2023-10-31T12:47:24;3.97;;;0.67;;
1026;SDS011;502;48.746;9.214;2023-10-31T12:55:24;2.43;;;0.80;;
1026;SDS011;502;48.746;9.214;2023-10-31T12:57:52;1.47;;;0.80;;
1026;SDS011;502;48.746;9.214;2023-10-31T13:00:19;1.03;;;0.60;;
1026;SDS011;502;48.746;9.214;2023-10-31T13:02:50;1.30;;;0.50;;
1026;SDS011;502;48.746;9.214;2023-10-31T13:05:19;1.10;;;0.53;;
1026;SDS011;502;48.746;9.214;2023-10-31T13:07:48;1.00;;;0.50;;
1026;SDS011;502;48.746;9.214;2023-10-31T13:10:16;1.90;;;0.57;;
1026;SDS011;502;48.746;9.214;2023-10-31T13:12:43;1.53;;;0.77;;
1026;SDS011;502;48.746;9.214;2023-10-31T13:15:11;2.03;;;0.70;;
1026;SDS011;502;48.746;9.214;2023-10-31T13:17:38;2.63;;;0.50;;
1026;SDS011;502;48.746;9.214;2023-10-31T13:20:07;1.03;;;0.60;;
1026;SDS011;502;48.746;9.214;2023-10-31T13:22:36;1.10;;;0.70;;
1026;SDS011;502;48.746;9.214;2023-10-31T13:25:02;1.73;;;0.93;;
1026;SDS011;502;48.746;9.214;2023-10-31T13:27:30;1.20;;;0.80;;
1026;SDS011;502;48.746;9.214;2023-10-31T13:29:56;1.03;;;0.63;;
1026;SDS011;502;48.746;9.214;2023-10-31T13:32:23;1.50;;;0.90;;
1026;SDS011;502;48.746;9.214;2023-10-31T13:34:49;1.37;;;0.60;;
1026;SDS011;502;48.746;9.214;2023-10-31T13:37:16;1.20;;;0.70;;
1026;SDS011;502;48.746;9.214;2023-10-31T13:39:44;3.17;;;0.77;;
1026;SDS011;502;48.746;9.214;2023-10-31T13:42:11;1.20;;;0.67;;
1026;SDS011;502;48.746;9.214;2023-10-31T13:44:39;3.10;;;0.60;;
1026;SDS011;502;48.746;9.214;2023-10-31T13:47:05;1.07;;;0.60;;
1026;SDS011;502;48.746;9.214;2023-10-31T13:49:32;1.10;;;0.60;;
1026;SDS011;502;48.746;9.214;2023-10-31T13:51:59;1.53;;;0.60;;
1026;SDS011;502;48.746;9.214;2023-10-31T13:54:25;1.10;;;0.50;;
1026;SDS011;502;48.746;9.214;2023-10-31T13:56:53;1.00;;;0.53;;
1026;SDS011;502;48.746;9.214;2023-10-31T13:59:19;1.37;;;0.80;;
1026;SDS011;502;48.746;9.214;2023-10-31T14:01:46;1.50;;;0.63;;
1026;SDS011;502;48.746;9.214;2023-10-31T14:04:13;1.87;;;0.80;;
1026;SDS011;502;48.746;9.214;2023-10-31T14:06:40;1.20;;;0.63;;
1026;SDS011;502;48.746;9.214;2023-10-31T14:09:07;1.10;;;0.70;;
1026;SDS011;502;48.746;9.214;2023-10-31T14:11:40;2.27;;;0.80;;
1026;SDS011;502;48.746;9.214;2023-10-31T14:14:09;1.70;;;1.00;;
1026;SDS011;502;48.746;9.214;2023-10-31T14:16:38;1.03;;;0.70;;
1026;SDS011;502;48.746;9.214;2023-10-31T14:19:06;1.30;;;0.67;;
1026;SDS011;502;48.746;9.214;2023-10-31T14:21:33;1.37;;;0.70;;
1026;SDS011;502;48.746;9.214;2023-10-31T14:23:59;1.63;;;0.80;;
1026;SDS011;502;48.746;9.214;2023-10-31T14:26:26;1.03;;;0.57;;
1026;SDS011;502;48.746;9.214;2023-10-31T14:28:53;1.30;;;1.00;;
1026;SDS011;502;48.746;9.214;2023-10-31T14:31:21;1.13;;;0.63;;
1026;SDS011;502;48.746;9.214;2023-10-31T14:33:48;1.60;;;0.90;;
1026;SDS011;502;48.746;9.214;2023-10-31T14:36:15;1.10;;;0.60;;
1026;SDS011;502;48.746;9.214;2023-10-31T14:38:41;1.67;;;1.00;;
1026;SDS011;502;48.746;9.214;2023-10-31T14:41:08;1.00;;;0.60;;
1026;SDS011;502;48.746;9.214;2023-10-31T14:43:39;1.10;;;0.70;;
1026;SDS011;502;48.746;9.214;2023-10-31T14:46:06;1.10;;;0.73;;
1026;SDS011;502;48.746;9.214;2023-10-31T14:48:34;1.50;;;0.80;;
1026;SDS011;502;48.746;9.214;2023-10-31T14:51:01;1.77;;;0.93;;
1026;SDS011;502;48.746;9.214;2023-10-31T14:53:28;1.10;;;0.70;;
1026;SDS011;502;48.746;9.214;2023-10-31T14:55:55;1.20;;;0.60;;
1026;SDS011;502;48.746;9.214;2023-10-31T14:58:21;1.37;;;0.70;;
1026;SDS011;502;48.746;9.214;2023-10-31T15:00:49;1.40;;;0.90;;
1026;SDS011;502;48.746;9.214;2023-10-31T15:03:16;1.73;;;0.70;;
1026;SDS011;502;48.746;9.214;2023-10-31T15:05:44;1.20;;;0.70;;
1026;SDS011;502;48.746;9.214;2023-10-31T15:08:11;1.00;;;0.70;;
1026;SDS011;502;48.746;9.214;2023-10-31T15:10:37;1.13;;;0.80;;
1026;SDS011;502;48.746;9.214;2023-10-31T15:13:04;1.57;;;0.70;;
1026;SDS011;502;48.746;9.214;2023-10-31T15:15:30;2.23;;;0.90;;
1026;SDS011;502;48.746;9.214;2023-10-31T15:17:57;1.17;;;0.63;;
1026;SDS011;502;48.746;9.214;2023-10-31T15:20:23;1.60;;;0.67;;
1026;SDS011;502;48.746;9.214;2023-10-31T15:22:52;1.10;;;0.60;;
1026;SDS011;502;48.746;9.214;2023-10-31T15:25:19;1.00;;;0.50;;
1026;SDS011;502;48.746;9.214;2023-10-31T15:27:46;5.77;;;0.60;;
1026;SDS011;502;48.746;9.214;2023-10-31T15:30:13;1.30;;;0.80;;
1026;SDS011;502;48.746;9.214;2023-10-31T15:32:39;1.43;;;0.80;;
1026;SDS011;502;48.746;9.214;2023-10-31T15:35:06;2.40;;;0.80;;
1026;SDS011;502;48.746;9.214;2023-10-31T15:37:33;1.10;;;0.67;;